createdAt,value
2023-02-17T00:00:55.711Z,8.02
2023-02-17T00:03:23.189Z,8.03
2023-02-17T00:05:51.165Z,8.03
2023-02-17T00:08:19.194Z,8.04
2023-02-17T00:10:45.887Z,8.05
2023-02-17T00:13:12.564Z,8.04
2023-02-17T00:15:39.902Z,8.03
2023-02-17T00:18:06.698Z,8.01
2023-02-17T00:20:33.477Z,7.99
2023-02-17T00:23:00.183Z,7.97
2023-02-17T00:25:26.899Z,7.93
2023-02-17T00:27:53.635Z,7.90
2023-02-17T00:30:20.466Z,7.86
2023-02-17T00:32:47.223Z,7.82
2023-02-17T00:35:14.555Z,7.75
2023-02-17T00:37:45.622Z,7.73
2023-02-17T00:40:13.762Z,7.75
2023-02-17T00:42:40.763Z,7.79
2023-02-17T00:45:08.267Z,7.80
2023-02-17T00:47:34.931Z,7.79
2023-02-17T00:50:01.740Z,7.77
2023-02-17T00:52:28.511Z,7.74
2023-02-17T00:54:55.266Z,7.71
2023-02-17T00:57:22.001Z,7.67
2023-02-17T00:59:48.640Z,7.62
2023-02-17T01:02:15.341Z,7.56
2023-02-17T01:04:42.250Z,7.50
2023-02-17T01:07:09.512Z,7.45
2023-02-17T01:09:36.770Z,7.40
2023-02-17T01:12:04.002Z,7.32
2023-02-17T01:14:31.695Z,7.29
2023-02-17T01:16:58.488Z,7.30
2023-02-17T01:19:26.326Z,7.33
2023-02-17T01:21:53.422Z,7.34
2023-02-17T01:24:20.075Z,7.34
2023-02-17T01:26:46.760Z,7.34
2023-02-17T01:29:13.646Z,7.30
2023-02-17T01:31:41.096Z,7.26
2023-02-17T01:34:12.032Z,7.21
2023-02-17T01:36:39.206Z,7.16
2023-02-17T01:39:06.072Z,7.12
2023-02-17T01:41:32.764Z,7.08
2023-02-17T01:44:09.690Z,7.05
2023-02-17T01:46:39.377Z,7.07
2023-02-17T01:49:17.852Z,7.11
2023-02-17T01:51:53.890Z,7.15
2023-02-17T01:54:30.747Z,7.16
2023-02-17T01:57:01.404Z,7.17
2023-02-17T01:59:29.759Z,7.17
2023-02-17T02:02:01.637Z,7.18
2023-02-17T02:04:31.963Z,7.15
2023-02-17T02:06:59.815Z,7.11
2023-02-17T02:09:41.641Z,7.03
2023-02-17T02:12:24.582Z,6.95
2023-02-17T02:14:52.889Z,6.91
2023-02-17T02:17:38.360Z,6.88
2023-02-17T02:20:32.859Z,6.87
2023-02-17T02:23:19.027Z,6.85
2023-02-17T02:26:16.978Z,6.81
2023-02-17T02:29:10.853Z,6.76
2023-02-17T02:31:50.467Z,6.75
2023-02-17T02:34:23.874Z,6.71
2023-02-17T02:36:54.262Z,6.66
2023-02-17T02:39:26.842Z,6.59
2023-02-17T02:41:58.488Z,6.55
2023-02-17T02:44:25.425Z,6.53
2023-02-17T02:47:42.408Z,6.52
2023-02-17T02:50:14.263Z,6.48
2023-02-17T02:52:56.898Z,6.44
2023-02-17T02:55:30.852Z,6.41
2023-02-17T02:58:13.901Z,6.40
2023-02-17T03:01:03.965Z,6.35
2023-02-17T03:03:47.256Z,6.31
2023-02-17T03:06:40.431Z,6.26
2023-02-17T03:09:12.895Z,6.21
2023-02-17T03:11:42.127Z,6.19
2023-02-17T03:14:16.291Z,6.20
2023-02-17T03:16:46.680Z,6.23
2023-02-17T03:19:15.181Z,6.23
2023-02-17T03:21:49.187Z,6.22
2023-02-17T03:24:16.153Z,6.21
2023-02-17T03:26:43.437Z,6.20
2023-02-17T03:29:10.386Z,6.14
2023-02-17T03:31:37.684Z,6.10
2023-02-17T03:34:06.157Z,6.06
2023-02-17T03:36:33.630Z,6.04
2023-02-17T03:39:00.405Z,6.01
2023-02-17T03:41:27.571Z,5.98
2023-02-17T03:43:54.613Z,5.94
2023-02-17T03:46:21.490Z,5.91
2023-02-17T03:48:48.159Z,5.92
2023-02-17T03:51:19.367Z,5.96
2023-02-17T03:53:46.440Z,5.99
2023-02-17T03:56:14.381Z,6.00
2023-02-17T03:58:42.020Z,6.00
2023-02-17T04:01:10.794Z,6.01
2023-02-17T04:03:39.386Z,5.98
2023-02-17T04:06:08.019Z,5.96
2023-02-17T04:08:35.031Z,5.94
2023-02-17T04:11:04.215Z,5.93
2023-02-17T04:13:31.506Z,5.89
2023-02-17T04:15:58.907Z,5.86
2023-02-17T04:18:25.690Z,5.82
2023-02-17T04:20:54.386Z,5.80
2023-02-17T04:23:21.237Z,5.77
2023-02-17T04:25:48.406Z,5.78
2023-02-17T04:28:16.979Z,5.82
2023-02-17T04:30:48.572Z,5.84
2023-02-17T04:33:16.556Z,5.84
2023-02-17T04:35:43.424Z,5.81
2023-02-17T04:38:10.763Z,5.75
2023-02-17T04:40:38.232Z,5.67
2023-02-17T04:43:05.606Z,5.61
2023-02-17T04:45:32.372Z,5.55
2023-02-17T04:47:59.072Z,5.47
2023-02-17T04:50:25.622Z,5.38
2023-02-17T04:52:52.450Z,5.28
2023-02-17T04:55:19.305Z,5.19
2023-02-17T04:57:45.959Z,5.11
2023-02-17T05:00:12.747Z,5.08
2023-02-17T05:02:39.457Z,5.07
2023-02-17T05:05:06.299Z,5.09
2023-02-17T05:07:33.096Z,5.09
2023-02-17T05:09:59.769Z,5.08
2023-02-17T05:12:26.562Z,5.08
2023-02-17T05:14:53.114Z,5.06
2023-02-17T05:17:19.746Z,5.06
2023-02-17T05:19:46.401Z,5.05
2023-02-17T05:22:13.188Z,5.03
2023-02-17T05:24:39.810Z,4.96
2023-02-17T05:27:06.497Z,4.92
2023-02-17T05:29:33.132Z,4.86
2023-02-17T05:32:00.020Z,4.77
2023-02-17T05:34:27.073Z,4.72
2023-02-17T05:36:53.802Z,4.66
2023-02-17T05:39:23.029Z,4.65
2023-02-17T05:41:49.787Z,4.67
2023-02-17T05:44:16.439Z,4.68
2023-02-17T05:46:43.305Z,4.67
2023-02-17T05:49:10.528Z,4.64
2023-02-17T05:51:37.320Z,4.62
2023-02-17T05:54:04.452Z,4.59
2023-02-17T05:56:31.600Z,4.57
2023-02-17T05:58:58.590Z,4.55
2023-02-17T06:01:25.339Z,4.53
2023-02-17T06:03:51.927Z,4.53
2023-02-17T06:06:18.798Z,4.49
2023-02-17T06:08:45.558Z,4.46
2023-02-17T06:11:12.164Z,4.42
2023-02-17T06:13:38.961Z,4.41
2023-02-17T06:16:06.413Z,4.42
2023-02-17T06:18:33.450Z,4.44
2023-02-17T06:21:00.394Z,4.46
2023-02-17T06:23:28.081Z,4.45
2023-02-17T06:25:55.323Z,4.44
2023-02-17T06:28:22.066Z,4.44
2023-02-17T06:30:49.303Z,4.42
2023-02-17T06:33:16.065Z,4.40
2023-02-17T06:35:44.580Z,4.37
2023-02-17T06:38:11.392Z,4.31
2023-02-17T06:40:38.005Z,4.28
2023-02-17T06:43:06.993Z,4.27
2023-02-17T06:45:35.001Z,4.26
2023-02-17T06:48:01.883Z,4.24
2023-02-17T06:50:28.748Z,4.24
2023-02-17T06:52:55.415Z,4.24
2023-02-17T06:55:22.184Z,4.25
2023-02-17T06:57:48.855Z,4.28
2023-02-17T07:00:15.816Z,4.30
2023-02-17T07:02:42.599Z,4.31
2023-02-17T07:05:10.008Z,4.31
2023-02-17T07:07:36.794Z,4.28
2023-02-17T07:10:03.618Z,4.21
2023-02-17T07:12:30.450Z,4.15
2023-02-17T07:14:57.076Z,4.13
2023-02-17T07:17:24.552Z,4.11
2023-02-17T07:19:51.233Z,4.11
2023-02-17T07:22:17.924Z,4.15
2023-02-17T07:24:44.671Z,4.20
2023-02-17T07:27:11.423Z,4.27
2023-02-17T07:29:38.108Z,4.37
2023-02-17T07:32:04.875Z,4.44
2023-02-17T07:34:31.745Z,4.51
2023-02-17T07:36:58.527Z,4.56
2023-02-17T07:39:25.159Z,4.59
2023-02-17T07:41:51.909Z,4.64
2023-02-17T07:44:18.498Z,4.70
2023-02-17T07:46:45.288Z,4.78
2023-02-17T07:49:12.385Z,4.86
2023-02-17T07:51:39.066Z,4.91
2023-02-17T07:54:06.022Z,4.95
2023-02-17T07:56:33.833Z,4.99
2023-02-17T07:59:00.648Z,5.02
2023-02-17T08:01:27.274Z,5.04
2023-02-17T08:03:54.422Z,5.09
2023-02-17T08:06:23.975Z,5.14
2023-02-17T08:09:10.432Z,5.19
2023-02-17T08:11:56.299Z,5.31
2023-02-17T08:14:25.388Z,5.47
2023-02-17T08:16:52.851Z,5.59
2023-02-17T08:19:20.194Z,5.71
2023-02-17T08:21:47.566Z,5.81
2023-02-17T08:24:16.462Z,5.90
2023-02-17T08:26:43.351Z,5.99
2023-02-17T08:29:10.018Z,6.06
2023-02-17T08:31:37.283Z,6.13
2023-02-17T08:34:09.607Z,6.20
2023-02-17T08:36:39.395Z,6.28
2023-02-17T08:39:10.448Z,6.35
2023-02-17T08:41:38.905Z,6.43
2023-02-17T08:44:11.816Z,6.52
2023-02-17T08:46:39.185Z,6.62
2023-02-17T08:49:07.686Z,6.73
2023-02-17T08:51:35.145Z,6.83
2023-02-17T08:54:03.898Z,6.95
2023-02-17T08:56:31.102Z,7.04
2023-02-17T08:58:57.813Z,7.17
2023-02-17T09:01:24.985Z,7.33
2023-02-17T09:03:54.655Z,7.49
2023-02-17T09:06:21.602Z,7.63
2023-02-17T09:08:49.735Z,7.76
2023-02-17T09:11:19.855Z,7.88
2023-02-17T09:13:47.002Z,8.04
2023-02-17T09:16:14.349Z,8.19
2023-02-17T09:18:41.232Z,8.29
2023-02-17T09:21:11.643Z,8.38
2023-02-17T09:23:38.499Z,8.48
2023-02-17T09:26:07.928Z,8.55
2023-02-17T09:28:35.177Z,8.63
2023-02-17T09:31:20.506Z,8.73
2023-02-17T09:33:48.844Z,8.86
2023-02-17T09:36:18.628Z,8.98
2023-02-17T09:38:45.932Z,9.08
2023-02-17T09:41:37.947Z,9.18
2023-02-17T09:44:19.006Z,9.31
2023-02-17T09:47:05.733Z,9.39
2023-02-17T09:49:40.024Z,9.50
2023-02-17T09:52:38.858Z,9.58
2023-02-17T09:55:13.838Z,9.69
2023-02-17T09:58:03.417Z,9.79
2023-02-17T10:00:35.337Z,9.89
2023-02-17T10:03:43.233Z,9.98
2023-02-17T10:06:18.488Z,10.09
2023-02-17T10:08:53.709Z,10.18
2023-02-17T10:11:34.320Z,10.28
2023-02-17T10:14:17.864Z,10.37
2023-02-17T10:16:51.844Z,10.44
2023-02-17T10:19:29.571Z,10.50
2023-02-17T10:22:05.902Z,10.56
2023-02-17T10:24:32.707Z,10.60
2023-02-17T10:27:12.054Z,10.66
2023-02-17T10:30:20.833Z,10.73
2023-02-17T10:32:56.864Z,10.85
2023-02-17T10:35:46.927Z,10.93
2023-02-17T10:38:18.190Z,11.05
2023-02-17T10:40:49.842Z,11.18
2023-02-17T10:43:24.378Z,11.31
2023-02-17T10:45:51.602Z,11.41
2023-02-17T10:48:26.299Z,11.49
2023-02-17T10:50:57.795Z,11.56
2023-02-17T10:53:29.461Z,11.63
2023-02-17T10:56:12.095Z,11.68
2023-02-17T10:59:06.689Z,11.75
2023-02-17T11:01:34.030Z,11.81
2023-02-17T11:04:07.508Z,11.86
2023-02-17T11:06:52.385Z,11.96
2023-02-17T11:09:29.508Z,12.07
2023-02-17T11:12:15.028Z,12.14
2023-02-17T11:14:47.440Z,12.23
2023-02-17T11:17:21.135Z,12.30
2023-02-17T11:19:57.210Z,12.39
2023-02-17T11:22:45.253Z,12.49
2023-02-17T11:25:22.666Z,12.58
2023-02-17T11:28:15.238Z,12.64
2023-02-17T11:30:52.046Z,12.69
2023-02-17T11:33:40.582Z,12.72
2023-02-17T11:36:13.714Z,12.75
2023-02-17T11:38:40.421Z,12.79
2023-02-17T11:41:08.501Z,12.83
2023-02-17T11:43:37.890Z,12.87
2023-02-17T11:46:41.462Z,12.91
2023-02-17T11:49:23.321Z,12.97
2023-02-17T11:52:03.619Z,13.00
2023-02-17T11:54:43.079Z,13.06
2023-02-17T11:57:34.759Z,13.12
2023-02-17T12:00:22.780Z,13.17
2023-02-17T12:03:11.188Z,13.19
2023-02-17T12:05:54.659Z,13.23
2023-02-17T12:08:33.633Z,13.27
2023-02-17T12:11:16.930Z,13.29
2023-02-17T12:14:06.188Z,13.32
2023-02-17T12:17:01.877Z,13.37
2023-02-17T12:19:36.918Z,13.40
2023-02-17T12:22:45.581Z,13.45
2023-02-17T12:25:29.148Z,13.48
2023-02-17T12:28:08.229Z,13.50
2023-02-17T12:31:12.761Z,13.53
2023-02-17T12:33:48.836Z,13.58
2023-02-17T12:36:18.582Z,13.62
2023-02-17T12:38:52.338Z,13.64
2023-02-17T12:41:41.273Z,13.62
2023-02-17T12:44:18.632Z,13.62
2023-02-17T12:46:50.892Z,13.59
2023-02-17T12:49:25.323Z,13.62
2023-02-17T12:52:11.227Z,13.65
2023-02-17T12:54:56.014Z,13.67
2023-02-17T12:57:30.205Z,13.69
2023-02-17T12:59:58.787Z,13.69
2023-02-17T13:02:26.532Z,13.70
2023-02-17T13:05:01.708Z,13.69
2023-02-17T13:07:31.757Z,13.72
2023-02-17T13:09:58.779Z,13.77
2023-02-17T13:12:25.590Z,13.82
2023-02-17T13:14:57.714Z,13.83
2023-02-17T13:17:55.666Z,13.83
2023-02-17T13:20:38.769Z,13.84
2023-02-17T13:23:11.047Z,13.88
2023-02-17T13:25:38.261Z,13.92
2023-02-17T13:28:19.791Z,13.98
2023-02-17T13:30:48.848Z,14.07
2023-02-17T13:33:21.544Z,14.13
2023-02-17T13:35:49.430Z,14.17
2023-02-17T13:38:30.164Z,14.19
2023-02-17T13:41:04.481Z,14.18
2023-02-17T13:43:40.244Z,14.12
2023-02-17T13:46:08.110Z,14.05
2023-02-17T13:48:36.311Z,13.98
2023-02-17T13:51:09.952Z,13.90
2023-02-17T13:53:40.019Z,13.83
2023-02-17T13:56:10.768Z,13.76
2023-02-17T13:58:42.283Z,13.70
2023-02-17T14:01:16.894Z,13.67
2023-02-17T14:03:50.851Z,13.65
2023-02-17T14:06:41.068Z,13.62
2023-02-17T14:09:29.585Z,13.60
2023-02-17T14:11:57.572Z,13.63
2023-02-17T14:14:29.237Z,13.68
2023-02-17T14:17:02.090Z,13.74
2023-02-17T14:19:29.660Z,13.76
2023-02-17T14:21:56.343Z,13.76
2023-02-17T14:24:40.015Z,13.73
2023-02-17T14:27:08.951Z,13.72
2023-02-17T14:29:48.065Z,13.70
2023-02-17T14:32:27.060Z,13.67
2023-02-17T14:34:53.712Z,13.65
2023-02-17T14:37:25.049Z,13.63
2023-02-17T14:39:51.832Z,13.61
2023-02-17T14:42:18.623Z,13.59
2023-02-17T14:44:45.349Z,13.57
2023-02-17T14:47:12.074Z,13.55
2023-02-17T14:49:38.766Z,13.54
2023-02-17T14:52:31.946Z,13.53
2023-02-17T14:55:00.006Z,13.53
2023-02-17T14:57:27.863Z,13.53
2023-02-17T14:59:57.767Z,13.53
2023-02-17T15:02:25.736Z,13.52
2023-02-17T15:04:52.479Z,13.53
2023-02-17T15:07:19.525Z,13.54
2023-02-17T15:09:48.626Z,13.54
2023-02-17T15:12:21.847Z,13.53
2023-02-17T15:14:48.646Z,13.52
2023-02-17T15:17:16.022Z,13.49
2023-02-17T15:19:45.068Z,13.45
2023-02-17T15:22:15.054Z,13.44
2023-02-17T15:24:42.059Z,13.40
2023-02-17T15:27:14.674Z,13.37
2023-02-17T15:29:41.783Z,13.35
2023-02-17T15:32:20.281Z,13.33
2023-02-17T15:34:47.169Z,13.32
2023-02-17T15:37:13.817Z,13.31
2023-02-17T15:39:40.490Z,13.31
2023-02-17T15:42:13.682Z,13.29
2023-02-17T15:44:44.309Z,13.27
2023-02-17T15:47:17.388Z,13.25
2023-02-17T15:49:44.580Z,13.22
2023-02-17T15:52:13.973Z,13.19
2023-02-17T15:54:42.730Z,13.16
2023-02-17T15:57:21.115Z,13.13
2023-02-17T15:59:47.980Z,13.10
2023-02-17T16:02:23.458Z,13.07
2023-02-17T16:05:08.493Z,13.05
2023-02-17T16:07:36.375Z,13.01
2023-02-17T16:10:05.599Z,12.98
2023-02-17T16:12:32.911Z,12.95
2023-02-17T16:14:59.707Z,12.91
2023-02-17T16:17:27.078Z,12.87
2023-02-17T16:19:53.815Z,12.81
2023-02-17T16:22:20.509Z,12.75
2023-02-17T16:24:47.180Z,12.68
2023-02-17T16:27:16.346Z,12.62
2023-02-17T16:29:43.596Z,12.56
2023-02-17T16:32:13.521Z,12.49
2023-02-17T16:34:40.893Z,12.43
2023-02-17T16:37:18.068Z,12.37
2023-02-17T16:39:45.799Z,12.30
2023-02-17T16:42:14.879Z,12.25
2023-02-17T16:44:42.425Z,12.24
2023-02-17T16:47:19.651Z,12.21
2023-02-17T16:49:47.706Z,12.17
2023-02-17T16:52:26.662Z,12.10
2023-02-17T16:54:54.328Z,12.01
2023-02-17T16:57:21.649Z,11.93
2023-02-17T16:59:48.427Z,11.86
2023-02-17T17:02:15.233Z,11.80
2023-02-17T17:04:42.003Z,11.74
2023-02-17T17:07:13.402Z,11.68
2023-02-17T17:09:40.881Z,11.62
2023-02-17T17:12:07.948Z,11.55
2023-02-17T17:14:34.666Z,11.48
2023-02-17T17:17:02.346Z,11.41
2023-02-17T17:19:29.108Z,11.36
2023-02-17T17:21:55.856Z,11.31
2023-02-17T17:24:22.575Z,11.24
2023-02-17T17:26:51.332Z,11.19
2023-02-17T17:29:19.577Z,11.14
2023-02-17T17:31:46.669Z,11.09
2023-02-17T17:34:13.647Z,11.07
2023-02-17T17:36:43.462Z,11.09
2023-02-17T17:39:20.784Z,11.08
2023-02-17T17:41:47.980Z,11.06
2023-02-17T17:44:15.503Z,11.03
2023-02-17T17:46:43.622Z,11.01
2023-02-17T17:49:13.464Z,11.00
2023-02-17T17:51:40.915Z,10.99
2023-02-17T17:54:08.361Z,10.96
2023-02-17T17:56:38.953Z,10.91
2023-02-17T17:59:06.944Z,10.86
2023-02-17T18:01:34.149Z,10.82
2023-02-17T18:04:01.604Z,10.77
2023-02-17T18:06:37.490Z,10.73
2023-02-17T18:09:07.085Z,10.70
2023-02-17T18:11:35.478Z,10.64
2023-02-17T18:14:06.663Z,10.62
2023-02-17T18:16:35.197Z,10.68
2023-02-17T18:19:04.423Z,10.72
2023-02-17T18:21:31.085Z,10.74
2023-02-17T18:23:57.762Z,10.76
2023-02-17T18:26:24.517Z,10.76
2023-02-17T18:28:51.235Z,10.74
2023-02-17T18:31:19.339Z,10.68
2023-02-17T18:33:46.300Z,10.63
2023-02-17T18:36:16.432Z,10.60
2023-02-17T18:38:44.356Z,10.54
2023-02-17T18:41:24.221Z,10.50
2023-02-17T18:43:51.816Z,10.45
2023-02-17T18:46:19.345Z,10.42
2023-02-17T18:48:46.586Z,10.39
2023-02-17T18:51:15.286Z,10.36
2023-02-17T18:53:42.654Z,10.32
2023-02-17T18:56:14.666Z,10.30
2023-02-17T18:58:41.714Z,10.30
2023-02-17T19:01:18.428Z,10.34
2023-02-17T19:03:45.656Z,10.38
2023-02-17T19:06:16.312Z,10.43
2023-02-17T19:08:47.830Z,10.45
2023-02-17T19:11:16.476Z,10.46
2023-02-17T19:13:43.275Z,10.47
2023-02-17T19:16:16.316Z,10.46
2023-02-17T19:18:44.495Z,10.43
2023-02-17T19:21:12.056Z,10.41
2023-02-17T19:23:39.217Z,10.38
2023-02-17T19:26:07.788Z,10.37
2023-02-17T19:28:37.664Z,10.33
2023-02-17T19:31:16.887Z,10.31
2023-02-17T19:33:45.739Z,10.29
2023-02-17T19:36:16.115Z,10.28
2023-02-17T19:38:43.141Z,10.29
2023-02-17T19:41:11.725Z,10.33
2023-02-17T19:43:39.378Z,10.38
2023-02-17T19:46:06.708Z,10.40
2023-02-17T19:48:34.512Z,10.40
2023-02-17T19:51:04.986Z,10.39
2023-02-17T19:53:33.223Z,10.35
2023-02-17T19:56:27.258Z,10.30
2023-02-17T19:58:55.374Z,10.25
2023-02-17T20:01:24.068Z,10.20
2023-02-17T20:03:52.314Z,10.15
2023-02-17T20:06:21.903Z,10.10
2023-02-17T20:09:03.125Z,10.06
2023-02-17T20:11:32.021Z,10.02
2023-02-17T20:14:00.005Z,9.98
2023-02-17T20:16:28.163Z,9.95
2023-02-17T20:18:55.796Z,9.93
2023-02-17T20:21:28.233Z,9.94
2023-02-17T20:23:55.984Z,9.92
2023-02-17T20:26:26.669Z,9.90
2023-02-17T20:28:54.543Z,9.85
2023-02-17T20:31:21.956Z,9.78
2023-02-17T20:33:48.804Z,9.73
2023-02-17T20:36:15.700Z,9.68
2023-02-17T20:38:42.470Z,9.64
2023-02-17T20:41:14.099Z,9.59
2023-02-17T20:43:40.841Z,9.56
2023-02-17T20:46:08.271Z,9.55
2023-02-17T20:48:35.323Z,9.56
2023-02-17T20:51:04.232Z,9.59
2023-02-17T20:53:31.220Z,9.57
2023-02-17T20:55:57.956Z,9.56
2023-02-17T20:58:24.690Z,9.53
2023-02-17T21:00:51.539Z,9.50
2023-02-17T21:03:18.323Z,9.47
2023-02-17T21:05:45.676Z,9.44
2023-02-17T21:08:12.416Z,9.40
2023-02-17T21:10:40.848Z,9.37
2023-02-17T21:13:07.737Z,9.33
2023-02-17T21:15:34.939Z,9.28
2023-02-17T21:18:01.817Z,9.21
2023-02-17T21:20:28.595Z,9.18
2023-02-17T21:22:55.349Z,9.19
2023-02-17T21:25:22.270Z,9.19
2023-02-17T21:27:49.212Z,9.21
2023-02-17T21:30:16.099Z,9.20
2023-02-17T21:32:43.212Z,9.19
2023-02-17T21:35:11.217Z,9.18
2023-02-17T21:37:41.388Z,9.13
2023-02-17T21:40:09.626Z,9.07
2023-02-17T21:42:58.440Z,8.98
2023-02-17T21:45:26.088Z,8.90
2023-02-17T21:47:52.779Z,8.84
2023-02-17T21:50:23.407Z,8.77
2023-02-17T21:52:50.250Z,8.71
2023-02-17T21:55:16.977Z,8.64
2023-02-17T21:57:43.704Z,8.57
2023-02-17T22:00:11.318Z,8.49
2023-02-17T22:02:42.908Z,8.45
2023-02-17T22:05:11.228Z,8.42
2023-02-17T22:07:38.634Z,8.39
2023-02-17T22:10:10.188Z,8.38
2023-02-17T22:12:39.180Z,8.35
2023-02-17T22:15:07.360Z,8.31
2023-02-17T22:17:35.821Z,8.28
2023-02-17T22:20:05.179Z,8.24
2023-02-17T22:22:33.805Z,8.19
2023-02-17T22:25:01.690Z,8.13
2023-02-17T22:27:29.148Z,8.08
2023-02-17T22:29:56.946Z,8.04
2023-02-17T22:32:24.131Z,8.02
2023-02-17T22:34:51.105Z,8.03
2023-02-17T22:37:18.451Z,8.06
2023-02-17T22:39:45.733Z,8.07
2023-02-17T22:42:14.001Z,8.07
2023-02-17T22:44:41.297Z,8.06
2023-02-17T22:47:08.713Z,8.05
2023-02-17T22:49:36.267Z,8.05
2023-02-17T22:52:04.345Z,8.04
2023-02-17T22:54:34.814Z,8.02
2023-02-17T22:57:05.812Z,7.97
2023-02-17T22:59:35.956Z,7.92
2023-02-17T23:02:03.292Z,7.87
2023-02-17T23:04:32.089Z,7.84
2023-02-17T23:06:59.741Z,7.85
2023-02-17T23:09:26.938Z,7.87
2023-02-17T23:11:54.580Z,7.89
2023-02-17T23:14:34.347Z,7.89
2023-02-17T23:17:11.280Z,7.89
2023-02-17T23:19:40.774Z,7.87
2023-02-17T23:22:12.144Z,7.85
2023-02-17T23:24:42.411Z,7.83
2023-02-17T23:27:10.587Z,7.80
2023-02-17T23:29:39.580Z,7.77
2023-02-17T23:32:10.723Z,7.74
2023-02-17T23:34:38.855Z,7.70
2023-02-17T23:37:15.812Z,7.64
2023-02-17T23:39:59.988Z,7.58
2023-02-17T23:42:49.566Z,7.56
2023-02-17T23:45:18.252Z,7.56
2023-02-17T23:47:51.852Z,7.60
2023-02-17T23:50:19.558Z,7.61
2023-02-17T23:52:47.532Z,7.60
2023-02-17T23:55:15.805Z,7.59
2023-02-17T23:57:43.057Z,7.57
